createdAt,value
2023-03-29T00:00:12.581Z,2.77
2023-03-29T00:02:40.706Z,2.70
2023-03-29T00:05:10.680Z,3.07
2023-03-29T00:07:38.351Z,2.87
2023-03-29T00:10:07.634Z,2.70
2023-03-29T00:12:35.615Z,2.67
2023-03-29T00:15:04.214Z,2.80
2023-03-29T00:17:31.440Z,2.90
2023-03-29T00:19:59.989Z,2.60
2023-03-29T00:22:28.205Z,2.80
2023-03-29T00:24:55.795Z,3.17
2023-03-29T00:27:23.590Z,2.90
2023-03-29T00:29:51.445Z,2.80
2023-03-29T00:32:19.944Z,2.60
2023-03-29T00:34:50.938Z,2.57
2023-03-29T00:37:19.083Z,2.60
2023-03-29T00:39:47.176Z,2.53
2023-03-29T00:42:16.334Z,2.60
2023-03-29T00:45:12.240Z,2.53
2023-03-29T00:47:44.072Z,2.70
2023-03-29T00:50:16.061Z,2.60
2023-03-29T00:52:47.785Z,2.50
2023-03-29T00:55:20.117Z,2.77
2023-03-29T00:57:49.643Z,2.83
2023-03-29T01:00:19.733Z,2.57
2023-03-29T01:03:24.643Z,2.60
2023-03-29T01:05:58.349Z,2.47
2023-03-29T01:08:35.460Z,2.70
2023-03-29T01:11:08.770Z,3.10
2023-03-29T01:13:44.848Z,2.60
2023-03-29T01:16:11.694Z,2.72
2023-03-29T01:18:39.896Z,3.00
2023-03-29T01:21:22.291Z,2.67
2023-03-29T01:23:58.238Z,2.67
2023-03-29T01:26:51.958Z,2.37
2023-03-29T01:29:25.916Z,2.53
2023-03-29T01:32:11.807Z,2.97
2023-03-29T01:34:46.209Z,3.30
2023-03-29T01:37:18.446Z,2.60
2023-03-29T01:39:47.305Z,2.97
2023-03-29T01:42:27.756Z,3.47
2023-03-29T01:45:00.503Z,3.00
2023-03-29T01:48:01.356Z,3.00
2023-03-29T01:50:50.849Z,3.10
2023-03-29T01:53:24.306Z,2.97
2023-03-29T01:55:56.058Z,3.37
2023-03-29T01:58:26.688Z,3.43
2023-03-29T02:00:55.656Z,3.50
2023-03-29T02:03:25.464Z,3.10
2023-03-29T02:05:53.505Z,3.23
2023-03-29T02:08:21.425Z,3.20
2023-03-29T02:10:48.954Z,3.40
2023-03-29T02:13:18.262Z,3.33
2023-03-29T02:15:47.230Z,2.93
2023-03-29T02:18:15.930Z,3.97
2023-03-29T02:20:47.286Z,3.00
2023-03-29T02:23:41.144Z,3.23
2023-03-29T02:26:09.024Z,3.30
2023-03-29T02:28:37.109Z,3.37
2023-03-29T02:31:34.020Z,3.33
2023-03-29T02:34:08.883Z,3.13
2023-03-29T02:36:38.511Z,2.90
2023-03-29T02:39:08.196Z,3.40
2023-03-29T02:41:35.017Z,3.47
2023-03-29T02:44:02.750Z,3.67
2023-03-29T02:46:30.645Z,3.83
2023-03-29T02:48:58.408Z,3.73
2023-03-29T02:51:29.896Z,3.60
2023-03-29T02:54:03.445Z,3.53
2023-03-29T02:56:31.721Z,4.07
2023-03-29T02:58:59.278Z,4.00
2023-03-29T03:01:27.439Z,3.87
2023-03-29T03:03:55.513Z,4.00
2023-03-29T03:06:24.113Z,3.40
2023-03-29T03:08:52.242Z,4.20
2023-03-29T03:11:20.274Z,4.20
2023-03-29T03:13:48.060Z,3.83
2023-03-29T03:16:16.193Z,3.83
2023-03-29T03:18:47.226Z,3.83
2023-03-29T03:21:15.195Z,4.47
2023-03-29T03:23:43.568Z,3.93
2023-03-29T03:26:11.084Z,4.50
2023-03-29T03:28:38.951Z,4.70
2023-03-29T03:31:07.506Z,4.13
2023-03-29T03:33:35.537Z,4.73
2023-03-29T03:36:06.993Z,4.00
2023-03-29T03:38:35.205Z,3.77
2023-03-29T03:41:03.163Z,4.73
2023-03-29T03:43:31.394Z,4.30
2023-03-29T03:45:59.614Z,4.40
2023-03-29T03:48:27.363Z,3.90
2023-03-29T03:50:55.955Z,3.80
2023-03-29T03:53:26.335Z,4.60
2023-03-29T03:55:54.294Z,4.20
2023-03-29T03:58:22.098Z,4.70
2023-03-29T04:00:50.280Z,3.73
2023-03-29T04:03:18.824Z,4.17
2023-03-29T04:05:46.601Z,4.10
2023-03-29T04:08:14.684Z,3.73
2023-03-29T04:10:42.641Z,4.67
2023-03-29T04:13:10.971Z,4.30
2023-03-29T04:15:39.080Z,3.87
2023-03-29T04:18:07.789Z,4.00
2023-03-29T04:20:35.945Z,4.13
2023-03-29T04:23:03.965Z,3.90
2023-03-29T04:25:31.839Z,4.13
2023-03-29T04:27:59.357Z,4.00
2023-03-29T04:30:27.060Z,4.50
2023-03-29T04:32:55.019Z,4.13
2023-03-29T04:35:22.956Z,4.17
2023-03-29T04:37:51.227Z,4.20
2023-03-29T04:40:19.627Z,4.80
2023-03-29T04:42:47.877Z,4.17
2023-03-29T04:45:18.087Z,4.50
2023-03-29T04:47:47.202Z,4.30
2023-03-29T04:50:15.798Z,4.33
2023-03-29T04:52:45.549Z,4.30
2023-03-29T04:55:13.542Z,4.13
2023-03-29T04:57:41.332Z,4.90
2023-03-29T05:00:15.588Z,4.93
2023-03-29T05:02:44.242Z,5.10
2023-03-29T05:05:12.396Z,4.40
2023-03-29T05:07:40.194Z,4.60
2023-03-29T05:10:09.309Z,4.93
2023-03-29T05:12:37.188Z,4.70
2023-03-29T05:15:11.513Z,4.63
2023-03-29T05:17:39.488Z,4.83
2023-03-29T05:20:11.730Z,4.70
2023-03-29T05:22:39.135Z,4.80
2023-03-29T05:25:08.722Z,5.00
2023-03-29T05:27:37.076Z,4.23
2023-03-29T05:30:06.808Z,4.60
2023-03-29T05:32:34.638Z,4.67
2023-03-29T05:35:02.634Z,5.13
2023-03-29T05:37:30.832Z,4.20
2023-03-29T05:40:05.921Z,4.30
2023-03-29T05:42:34.612Z,4.20
2023-03-29T05:45:02.723Z,4.13
2023-03-29T05:47:30.682Z,4.80
2023-03-29T05:49:58.343Z,5.67
2023-03-29T05:52:26.144Z,5.17
2023-03-29T05:54:54.105Z,5.87
2023-03-29T05:57:21.698Z,5.30
2023-03-29T05:59:49.203Z,5.13
2023-03-29T06:02:17.077Z,5.53
2023-03-29T06:04:45.022Z,5.30
2023-03-29T06:07:12.879Z,4.83
2023-03-29T06:09:41.678Z,5.13
2023-03-29T06:12:09.893Z,5.53
2023-03-29T06:14:37.755Z,5.57
2023-03-29T06:17:06.134Z,5.40
2023-03-29T06:19:34.067Z,5.53
2023-03-29T06:22:02.137Z,5.40
2023-03-29T06:24:29.960Z,5.00
2023-03-29T06:26:58.233Z,5.43
2023-03-29T06:29:27.026Z,5.00
2023-03-29T06:31:57.836Z,4.90
2023-03-29T06:34:25.966Z,5.23
2023-03-29T06:36:54.827Z,4.17
2023-03-29T06:39:22.727Z,4.80
2023-03-29T06:41:51.059Z,4.97
2023-03-29T06:44:18.973Z,5.40
2023-03-29T06:46:46.623Z,4.70
2023-03-29T06:49:14.816Z,4.37
2023-03-29T06:51:43.528Z,4.97
2023-03-29T06:54:11.733Z,4.83
2023-03-29T06:56:40.292Z,4.37
2023-03-29T06:59:08.601Z,4.27
2023-03-29T07:01:39.097Z,4.20
2023-03-29T07:04:09.706Z,4.67
2023-03-29T07:06:39.859Z,4.23
2023-03-29T07:09:10.383Z,4.20
2023-03-29T07:11:39.664Z,4.40
2023-03-29T07:14:08.484Z,4.83
2023-03-29T07:16:38.209Z,4.90
2023-03-29T07:19:06.872Z,5.03
2023-03-29T07:21:36.705Z,4.97
2023-03-29T07:24:07.584Z,5.27
2023-03-29T07:26:40.481Z,5.03
2023-03-29T07:29:12.439Z,5.18
2023-03-29T07:31:42.258Z,4.67
2023-03-29T07:34:13.850Z,4.70
2023-03-29T07:36:44.109Z,5.10
2023-03-29T07:39:15.869Z,4.23
2023-03-29T07:41:44.321Z,4.77
2023-03-29T07:44:12.520Z,4.93
2023-03-29T07:46:43.347Z,4.70
2023-03-29T07:49:11.001Z,4.30
2023-03-29T07:51:39.498Z,4.50
2023-03-29T07:54:08.373Z,4.50
2023-03-29T07:56:36.132Z,3.57
2023-03-29T07:59:04.054Z,4.00
2023-03-29T08:01:32.813Z,4.57
2023-03-29T08:04:00.940Z,4.77
2023-03-29T08:06:28.699Z,4.33
2023-03-29T08:08:56.372Z,5.03
2023-03-29T08:11:24.697Z,4.80
2023-03-29T08:13:53.069Z,4.77
2023-03-29T08:16:20.762Z,4.30
2023-03-29T08:18:49.383Z,4.97
2023-03-29T08:21:17.175Z,4.53
2023-03-29T08:23:44.630Z,5.43
2023-03-29T08:26:12.416Z,4.57
2023-03-29T08:28:40.498Z,4.23
2023-03-29T08:31:08.665Z,5.77
2023-03-29T08:33:37.133Z,4.23
2023-03-29T08:36:06.716Z,4.53
2023-03-29T08:38:34.871Z,4.27
2023-03-29T08:41:02.771Z,4.20
2023-03-29T08:43:53.806Z,3.87
2023-03-29T08:46:42.423Z,3.13
2023-03-29T08:49:09.291Z,3.37
2023-03-29T08:51:43.285Z,3.83
2023-03-29T08:54:18.820Z,4.17
2023-03-29T08:56:47.817Z,4.47
2023-03-29T08:59:44.030Z,4.67
2023-03-29T09:02:32.955Z,4.00
2023-03-29T09:05:08.595Z,3.67
2023-03-29T09:07:36.535Z,3.93
2023-03-29T09:10:05.181Z,3.60
2023-03-29T09:12:32.082Z,3.27
2023-03-29T09:15:28.834Z,4.00
2023-03-29T09:18:36.683Z,3.33
2023-03-29T09:21:23.442Z,3.53
2023-03-29T09:24:02.212Z,3.78
2023-03-29T09:27:01.143Z,2.93
2023-03-29T09:29:31.053Z,3.50
2023-03-29T09:32:04.292Z,3.23
2023-03-29T09:34:36.243Z,3.10
2023-03-29T09:37:22.380Z,2.97
2023-03-29T09:39:50.086Z,4.07
2023-03-29T09:42:17.955Z,3.60
2023-03-29T09:44:51.979Z,3.80
2023-03-29T09:47:28.970Z,3.73
2023-03-29T09:50:30.197Z,3.50
2023-03-29T09:52:59.058Z,3.53
2023-03-29T09:55:28.287Z,3.63
2023-03-29T09:58:08.055Z,3.33
2023-03-29T10:00:35.502Z,3.73
2023-03-29T10:03:03.526Z,3.70
2023-03-29T10:05:32.064Z,3.87
2023-03-29T10:08:00.518Z,3.90
2023-03-29T10:10:32.502Z,3.70
2023-03-29T10:13:13.698Z,3.80
2023-03-29T10:16:03.503Z,3.03
2023-03-29T10:18:33.030Z,3.90
2023-03-29T10:21:01.929Z,3.57
2023-03-29T10:23:34.533Z,3.97
2023-03-29T10:26:04.429Z,3.73
2023-03-29T10:28:32.120Z,4.60
2023-03-29T10:31:01.014Z,4.20
2023-03-29T10:33:34.135Z,4.17
2023-03-29T10:36:06.907Z,3.83
2023-03-29T10:38:35.115Z,4.00
2023-03-29T10:41:10.152Z,4.37
2023-03-29T10:43:39.541Z,3.37
2023-03-29T10:46:31.391Z,3.70
2023-03-29T10:48:59.181Z,3.67
2023-03-29T10:51:31.434Z,3.50
2023-03-29T10:53:59.679Z,3.47
2023-03-29T10:56:27.131Z,3.00
2023-03-29T10:58:59.523Z,2.73
2023-03-29T11:01:48.855Z,3.20
2023-03-29T11:04:18.878Z,3.20
2023-03-29T11:06:45.502Z,2.60
2023-03-29T11:09:49.872Z,2.80
2023-03-29T11:12:51.278Z,2.47
2023-03-29T11:15:30.061Z,2.40
2023-03-29T11:18:34.486Z,2.00
2023-03-29T11:21:40.081Z,2.00
2023-03-29T11:24:15.788Z,2.00
2023-03-29T11:26:49.624Z,2.10
2023-03-29T11:29:44.610Z,2.33
2023-03-29T11:32:17.887Z,2.00
2023-03-29T11:35:12.760Z,2.20
2023-03-29T11:37:49.807Z,2.40
2023-03-29T11:40:23.512Z,2.33
2023-03-29T11:42:51.582Z,2.73
2023-03-29T11:45:28.503Z,2.27
2023-03-29T11:47:59.669Z,2.77
2023-03-29T11:50:42.280Z,2.90
2023-03-29T11:53:11.688Z,2.40
2023-03-29T11:55:41.479Z,2.80
2023-03-29T11:58:31.436Z,2.60
2023-03-29T12:01:01.781Z,3.17
2023-03-29T12:03:46.744Z,2.70
2023-03-29T12:06:20.037Z,3.37
2023-03-29T12:09:01.739Z,2.27
2023-03-29T12:11:54.851Z,2.50
2023-03-29T12:14:27.362Z,2.60
2023-03-29T12:17:05.836Z,2.20
2023-03-29T12:19:42.731Z,2.07
2023-03-29T12:22:11.271Z,1.80
2023-03-29T12:24:40.594Z,2.50
2023-03-29T12:27:10.583Z,2.60
2023-03-29T12:30:34.449Z,2.60
2023-03-29T12:33:28.317Z,2.30
2023-03-29T12:35:55.420Z,2.07
2023-03-29T12:38:23.067Z,2.10
2023-03-29T12:40:55.521Z,2.20
2023-03-29T12:43:28.286Z,2.40
2023-03-29T12:45:58.693Z,2.10
2023-03-29T12:48:27.298Z,2.33
2023-03-29T12:50:57.323Z,2.10
2023-03-29T12:53:28.897Z,2.33
2023-03-29T12:55:56.846Z,2.30
2023-03-29T12:58:28.037Z,2.63
2023-03-29T13:01:06.900Z,2.57
2023-03-29T13:03:40.052Z,2.30
2023-03-29T13:06:09.321Z,2.23
2023-03-29T13:08:44.725Z,2.20
2023-03-29T13:11:24.776Z,2.35
2023-03-29T13:13:52.358Z,2.57
2023-03-29T13:16:20.458Z,2.17
2023-03-29T13:18:56.297Z,2.27
2023-03-29T13:21:47.963Z,2.13
2023-03-29T13:24:33.776Z,2.17
2023-03-29T13:27:06.685Z,2.17
2023-03-29T13:29:51.757Z,2.03
2023-03-29T13:33:02.973Z,1.43
2023-03-29T13:36:08.727Z,1.63
2023-03-29T13:38:51.675Z,1.63
2023-03-29T13:41:44.545Z,1.70
2023-03-29T13:44:29.770Z,2.08
2023-03-29T13:47:30.104Z,2.05
2023-03-29T13:49:58.556Z,1.60
2023-03-29T13:52:29.088Z,1.80
2023-03-29T13:55:08.634Z,1.80
2023-03-29T13:57:42.608Z,1.95
2023-03-29T14:00:18.662Z,2.00
2023-03-29T14:02:55.885Z,1.80
2023-03-29T14:05:29.435Z,1.40
2023-03-29T14:07:57.358Z,1.83
2023-03-29T14:10:46.755Z,1.67
2023-03-29T14:13:15.269Z,1.98
2023-03-29T14:15:52.995Z,1.88
2023-03-29T14:18:24.292Z,3.42
2023-03-29T14:20:54.891Z,1.67
2023-03-29T14:23:25.705Z,2.40
2023-03-29T14:25:53.645Z,2.17
2023-03-29T14:28:44.927Z,1.80
2023-03-29T14:31:42.212Z,1.58
2023-03-29T14:34:17.096Z,2.25
2023-03-29T14:36:48.888Z,1.58
2023-03-29T14:39:17.492Z,1.73
2023-03-29T14:41:53.946Z,1.90
2023-03-29T14:44:22.593Z,1.80
2023-03-29T14:46:49.630Z,1.80
2023-03-29T14:49:17.885Z,1.77
2023-03-29T14:51:45.508Z,1.93
2023-03-29T14:54:33.286Z,1.92
2023-03-29T14:57:09.718Z,1.58
2023-03-29T14:59:38.681Z,1.60
2023-03-29T15:02:07.367Z,1.63
2023-03-29T15:04:39.694Z,1.70
2023-03-29T15:07:08.275Z,2.45
2023-03-29T15:09:36.241Z,1.80
2023-03-29T15:12:04.057Z,1.98
2023-03-29T15:14:34.750Z,2.03
2023-03-29T15:17:14.953Z,2.10
2023-03-29T15:19:43.127Z,1.77
2023-03-29T15:22:11.477Z,2.10
2023-03-29T15:24:47.991Z,2.30
2023-03-29T15:27:19.721Z,2.20
2023-03-29T15:29:47.441Z,3.70
2023-03-29T15:32:22.571Z,2.60
2023-03-29T15:35:00.614Z,2.53
2023-03-29T15:37:28.287Z,2.23
2023-03-29T15:39:56.465Z,2.43
2023-03-29T15:42:24.509Z,2.60
2023-03-29T15:44:56.592Z,2.63
2023-03-29T15:47:24.179Z,2.13
2023-03-29T15:49:51.816Z,2.13
2023-03-29T15:52:20.442Z,2.03
2023-03-29T15:54:48.653Z,2.37
2023-03-29T15:57:15.880Z,2.97
2023-03-29T15:59:43.387Z,2.83
2023-03-29T16:02:15.875Z,3.00
2023-03-29T16:04:43.338Z,2.90
2023-03-29T16:07:15.155Z,2.77
2023-03-29T16:09:42.780Z,3.22
2023-03-29T16:12:10.809Z,2.70
2023-03-29T16:14:38.125Z,2.27
2023-03-29T16:17:25.579Z,2.97
2023-03-29T16:19:53.823Z,3.30
2023-03-29T16:22:21.899Z,3.60
2023-03-29T16:24:49.699Z,2.57
2023-03-29T16:27:20.912Z,2.53
2023-03-29T16:29:49.226Z,3.03
2023-03-29T16:32:16.820Z,3.10
2023-03-29T16:34:44.727Z,3.27
2023-03-29T16:37:15.201Z,2.93
2023-03-29T16:39:43.549Z,2.97
2023-03-29T16:42:11.365Z,2.87
2023-03-29T16:44:42.092Z,2.97
2023-03-29T16:47:13.070Z,2.43
2023-03-29T16:49:41.480Z,2.80
2023-03-29T16:52:10.382Z,2.90
2023-03-29T16:54:38.619Z,2.53
2023-03-29T16:57:08.402Z,2.90
2023-03-29T16:59:36.301Z,3.37
2023-03-29T17:02:07.564Z,2.80
2023-03-29T17:04:36.197Z,2.73
2023-03-29T17:07:03.799Z,3.03
2023-03-29T17:09:32.235Z,3.23
2023-03-29T17:12:00.236Z,4.43
2023-03-29T17:14:28.354Z,3.67
2023-03-29T17:16:56.091Z,3.23
2023-03-29T17:19:23.955Z,3.57
2023-03-29T17:21:51.848Z,3.07
2023-03-29T17:24:19.809Z,3.30
2023-03-29T17:26:47.379Z,3.00
2023-03-29T17:29:15.539Z,2.97
2023-03-29T17:31:47.865Z,3.17
2023-03-29T17:34:16.949Z,3.20
2023-03-29T17:36:45.796Z,3.30
2023-03-29T17:39:18.768Z,3.80
2023-03-29T17:41:47.109Z,3.47
2023-03-29T17:44:15.390Z,3.20
2023-03-29T17:46:46.335Z,3.40
2023-03-29T17:49:17.884Z,4.87
2023-03-29T17:51:47.999Z,3.57
2023-03-29T17:54:16.631Z,3.53
2023-03-29T17:56:44.413Z,4.30
2023-03-29T17:59:13.204Z,3.87
2023-03-29T18:01:41.825Z,4.00
2023-03-29T18:04:27.180Z,4.40
2023-03-29T18:06:56.373Z,4.07
2023-03-29T18:09:26.013Z,4.53
2023-03-29T18:12:04.561Z,4.90
2023-03-29T18:14:49.968Z,5.20
2023-03-29T18:17:20.931Z,5.00
2023-03-29T18:19:51.545Z,4.73
2023-03-29T18:25:14.970Z,4.00
2023-03-29T18:30:30.656Z,4.40
2023-03-29T18:33:02.860Z,5.07
2023-03-29T18:35:31.650Z,5.90
2023-03-29T18:38:03.447Z,6.50
2023-03-29T18:40:32.172Z,5.80
2023-03-29T18:43:06.763Z,5.30
2023-03-29T18:45:53.473Z,5.10
2023-03-29T18:48:22.150Z,4.50
2023-03-29T18:50:54.539Z,5.07
2023-03-29T18:53:22.497Z,4.40
2023-03-29T18:55:50.703Z,5.23
2023-03-29T18:58:20.488Z,4.43
2023-03-29T19:00:52.790Z,4.27
2023-03-29T19:03:21.130Z,4.40
2023-03-29T19:09:10.129Z,5.53
2023-03-29T19:11:44.732Z,5.10
2023-03-29T19:14:14.800Z,4.90
2023-03-29T19:16:42.960Z,5.20
2023-03-29T19:19:11.321Z,5.03
2023-03-29T19:24:33.416Z,5.00
2023-03-29T19:27:01.920Z,4.83
2023-03-29T19:29:35.106Z,5.30
2023-03-29T19:32:02.820Z,5.53
2023-03-29T19:34:31.136Z,4.93
2023-03-29T19:37:00.440Z,5.60
2023-03-29T19:39:30.501Z,6.10
2023-03-29T19:41:58.508Z,4.83
2023-03-29T19:44:28.540Z,5.10
2023-03-29T19:46:56.786Z,5.03
2023-03-29T19:49:25.349Z,5.60
2023-03-29T19:51:55.102Z,5.87
2023-03-29T19:54:23.574Z,5.50
2023-03-29T19:56:52.852Z,5.67
2023-03-29T19:59:21.138Z,5.53
2023-03-29T20:01:51.875Z,5.50
2023-03-29T20:04:20.026Z,5.70
2023-03-29T20:06:47.278Z,6.10
2023-03-29T20:09:16.801Z,6.43
2023-03-29T20:11:44.611Z,5.73
2023-03-29T20:14:12.419Z,5.97
2023-03-29T20:16:41.020Z,6.10
2023-03-29T20:19:09.833Z,5.77
2023-03-29T20:21:37.556Z,5.47
2023-03-29T20:24:09.429Z,5.57
2023-03-29T20:26:37.502Z,6.33
2023-03-29T20:29:05.354Z,6.40
2023-03-29T20:31:33.584Z,6.07
2023-03-29T20:34:01.864Z,5.80
2023-03-29T20:36:32.460Z,5.77
2023-03-29T20:39:01.848Z,6.10
2023-03-29T20:41:34.857Z,5.53
2023-03-29T20:44:03.363Z,6.20
2023-03-29T20:46:34.446Z,5.83
2023-03-29T20:49:05.378Z,5.37
2023-03-29T20:51:33.711Z,5.80
2023-03-29T20:54:04.870Z,5.97
2023-03-29T20:56:40.048Z,5.93
2023-03-29T20:59:17.130Z,5.77
2023-03-29T21:01:45.558Z,5.30
2023-03-29T21:04:13.576Z,5.93
2023-03-29T21:06:42.244Z,5.20
2023-03-29T21:09:10.149Z,5.30
2023-03-29T21:11:38.743Z,5.53
2023-03-29T21:14:08.026Z,5.03
2023-03-29T21:16:36.289Z,5.43
2023-03-29T21:19:04.466Z,5.00
2023-03-29T21:21:33.736Z,4.70
2023-03-29T21:24:02.323Z,4.77
2023-03-29T21:26:30.614Z,5.30
2023-03-29T21:28:58.510Z,4.67
2023-03-29T21:31:30.136Z,4.30
2023-03-29T21:34:04.207Z,4.83
2023-03-29T21:36:40.402Z,4.13
2023-03-29T21:39:10.293Z,4.50
2023-03-29T21:41:45.207Z,4.63
2023-03-29T21:44:18.120Z,4.67
2023-03-29T21:46:47.341Z,4.50
2023-03-29T21:49:16.582Z,5.03
2023-03-29T21:51:44.653Z,5.00
2023-03-29T21:54:13.250Z,4.83
2023-03-29T21:56:41.502Z,5.40
2023-03-29T21:59:09.595Z,4.80
2023-03-29T22:01:38.006Z,4.83
2023-03-29T22:04:06.275Z,5.00
2023-03-29T22:06:34.941Z,5.07
2023-03-29T22:09:03.214Z,5.40
2023-03-29T22:11:31.875Z,4.60
2023-03-29T22:14:00.664Z,5.37
2023-03-29T22:16:40.209Z,5.70
2023-03-29T22:19:14.408Z,5.70
2023-03-29T22:21:43.337Z,5.27
2023-03-29T22:24:16.810Z,6.23
2023-03-29T22:26:55.869Z,5.60
2023-03-29T22:29:24.039Z,5.67
2023-03-29T22:31:53.198Z,6.17
2023-03-29T22:34:21.092Z,6.10
2023-03-29T22:36:57.472Z,6.13
2023-03-29T22:39:25.468Z,6.88
2023-03-29T22:41:53.935Z,6.77
2023-03-29T22:44:21.474Z,6.30
2023-03-29T22:46:49.067Z,5.77
2023-03-29T22:52:27.824Z,6.47
2023-03-29T22:54:56.033Z,7.10
2023-03-29T22:57:24.915Z,6.23
2023-03-29T22:59:53.647Z,6.07
2023-03-29T23:02:22.235Z,6.37
2023-03-29T23:04:56.082Z,6.43
2023-03-29T23:07:24.614Z,6.50
2023-03-29T23:09:53.148Z,6.30
2023-03-29T23:12:24.693Z,6.47
2023-03-29T23:14:53.689Z,7.53
2023-03-29T23:17:22.031Z,7.50
2023-03-29T23:19:56.086Z,8.70
2023-03-29T23:22:24.398Z,8.97
2023-03-29T23:24:52.045Z,10.50
2023-03-29T23:27:26.061Z,10.50
2023-03-29T23:29:55.425Z,12.17
2023-03-29T23:32:23.049Z,10.93
2023-03-29T23:34:51.635Z,11.03
2023-03-29T23:37:19.639Z,9.93
2023-03-29T23:39:48.342Z,11.07
2023-03-29T23:42:16.340Z,11.10
2023-03-29T23:44:48.103Z,10.00
2023-03-29T23:47:17.049Z,10.53
2023-03-29T23:49:45.499Z,10.10
2023-03-29T23:52:14.191Z,10.70
2023-03-29T23:54:42.596Z,10.17
2023-03-29T23:57:28.958Z,10.97
